createdAt,value
2023-01-27T00:01:43.171Z,81.49
2023-01-27T00:05:26.532Z,81.85
2023-01-27T00:09:12.364Z,81.94
2023-01-27T00:13:12.634Z,82.09
2023-01-27T00:16:56.666Z,82.31
2023-01-27T00:20:57.087Z,82.31
2023-01-27T00:24:39.798Z,82.08
2023-01-27T00:28:25.344Z,81.21
2023-01-27T00:32:26.809Z,82.18
2023-01-27T00:36:10.035Z,81.83
2023-01-27T00:39:55.690Z,82.35
2023-01-27T00:43:38.370Z,82.08
2023-01-27T00:47:22.436Z,82.29
2023-01-27T00:51:05.301Z,83.37
2023-01-27T00:54:48.260Z,82.70
2023-01-27T00:58:31.110Z,83.08
2023-01-27T01:02:13.782Z,82.96
2023-01-27T01:05:57.869Z,82.41
2023-01-27T01:09:40.680Z,82.61
2023-01-27T01:13:23.504Z,82.88
2023-01-27T01:17:06.151Z,83.41
2023-01-27T01:20:48.900Z,83.25
2023-01-27T01:24:32.888Z,82.01
2023-01-27T01:28:15.576Z,82.79
2023-01-27T01:31:58.866Z,84.39
2023-01-27T01:35:41.550Z,83.64
2023-01-27T01:39:24.301Z,83.50
2023-01-27T01:43:13.439Z,82.17
2023-01-27T01:46:56.260Z,82.09
2023-01-27T01:50:40.384Z,81.93
2023-01-27T01:54:25.297Z,82.01
2023-01-27T01:58:11.504Z,82.30
2023-01-27T02:01:55.404Z,82.81
2023-01-27T02:05:41.975Z,83.54
2023-01-27T02:09:25.098Z,84.58
2023-01-27T02:13:09.235Z,85.24
2023-01-27T02:16:52.073Z,84.63
2023-01-27T02:20:39.434Z,85.20
2023-01-27T02:24:23.830Z,85.20
2023-01-27T02:28:09.800Z,84.08
2023-01-27T02:31:52.511Z,84.26
2023-01-27T02:35:39.456Z,84.19
2023-01-27T02:39:24.995Z,84.67
2023-01-27T02:43:09.018Z,83.44
2023-01-27T02:46:51.727Z,82.82
2023-01-27T02:50:34.430Z,84.13
2023-01-27T02:54:17.089Z,84.05
2023-01-27T02:57:59.891Z,83.68
2023-01-27T03:01:44.284Z,84.37
2023-01-27T03:05:27.561Z,84.78
2023-01-27T03:09:10.305Z,84.95
2023-01-27T03:12:52.990Z,85.77
2023-01-27T03:16:53.369Z,85.68
2023-01-27T03:20:37.486Z,85.56
2023-01-27T03:24:20.361Z,85.95
2023-01-27T03:28:03.366Z,85.99
2023-01-27T03:31:46.274Z,86.29
2023-01-27T03:35:34.497Z,85.61
2023-01-27T03:39:36.241Z,85.72
2023-01-27T03:43:36.674Z,87.15
2023-01-27T03:47:19.396Z,87.88
2023-01-27T03:51:03.006Z,86.57
2023-01-27T03:54:47.229Z,86.63
2023-01-27T03:58:32.828Z,85.99
2023-01-27T04:02:33.068Z,87.40
2023-01-27T04:06:34.501Z,86.71
2023-01-27T04:10:18.947Z,87.65
2023-01-27T04:14:03.022Z,88.27
2023-01-27T04:17:45.652Z,87.92
2023-01-27T04:21:28.472Z,87.41
2023-01-27T04:25:13.321Z,87.63
2023-01-27T04:28:57.441Z,87.31
2023-01-27T04:32:40.111Z,87.11
2023-01-27T04:36:23.069Z,86.62
2023-01-27T04:40:06.736Z,85.65
2023-01-27T04:43:49.401Z,84.58
2023-01-27T04:47:33.425Z,83.87
2023-01-27T04:51:16.226Z,84.06
2023-01-27T04:54:58.868Z,82.90
2023-01-27T04:58:41.617Z,83.64
2023-01-27T05:02:25.195Z,82.29
2023-01-27T05:06:10.214Z,82.72
2023-01-27T05:09:52.934Z,81.93
2023-01-27T05:13:35.775Z,82.75
2023-01-27T05:17:18.531Z,82.85
2023-01-27T05:21:01.960Z,82.82
2023-01-27T05:24:46.008Z,83.45
2023-01-27T05:28:29.246Z,83.01
2023-01-27T05:32:11.984Z,83.18
2023-01-27T05:35:56.054Z,83.67
2023-01-27T05:39:39.744Z,83.39
2023-01-27T05:43:23.878Z,82.94
2023-01-27T05:47:07.604Z,82.52
2023-01-27T05:50:57.040Z,82.45
2023-01-27T05:54:39.833Z,82.20
2023-01-27T05:58:24.205Z,80.66
2023-01-27T06:02:07.271Z,79.61
2023-01-27T06:05:54.336Z,79.81
2023-01-27T06:09:38.827Z,79.78
2023-01-27T06:13:27.688Z,80.41
2023-01-27T06:17:10.359Z,80.00
2023-01-27T06:20:53.183Z,79.98
2023-01-27T06:24:38.754Z,80.63
2023-01-27T06:28:29.164Z,80.62
2023-01-27T06:32:12.315Z,80.37
2023-01-27T06:36:02.552Z,80.44
2023-01-27T06:39:45.278Z,80.55
2023-01-27T06:43:29.379Z,80.47
2023-01-27T06:47:12.055Z,80.02
2023-01-27T06:50:55.368Z,79.42
2023-01-27T06:54:38.178Z,79.76
2023-01-27T06:58:20.929Z,79.72
2023-01-27T07:02:05.057Z,79.77
2023-01-27T07:05:47.845Z,79.37
2023-01-27T07:09:35.398Z,79.56
2023-01-27T07:13:25.691Z,79.56
2023-01-27T07:17:10.198Z,80.11
2023-01-27T07:20:52.996Z,80.69
2023-01-27T07:24:37.438Z,81.61
2023-01-27T07:28:20.139Z,83.53
2023-01-27T07:32:02.861Z,85.50
2023-01-27T07:35:49.854Z,84.34
2023-01-27T07:39:33.548Z,81.79
2023-01-27T07:43:16.361Z,81.39
2023-01-27T07:46:59.957Z,80.88
2023-01-27T07:50:42.724Z,81.21
2023-01-27T07:54:28.829Z,83.87
2023-01-27T07:58:11.511Z,85.07
2023-01-27T08:01:54.415Z,86.16
2023-01-27T08:05:38.571Z,87.48
2023-01-27T08:09:21.340Z,88.16
2023-01-27T08:13:06.724Z,87.58
2023-01-27T08:16:49.672Z,87.40
2023-01-27T08:20:32.424Z,85.32
2023-01-27T08:24:15.224Z,86.25
2023-01-27T08:27:58.046Z,86.52
2023-01-27T08:31:42.445Z,86.73
2023-01-27T08:35:25.185Z,86.09
2023-01-27T08:39:07.888Z,87.23
2023-01-27T08:42:51.334Z,87.68
2023-01-27T08:46:34.141Z,86.82
2023-01-27T08:50:18.360Z,87.26
2023-01-27T08:54:01.095Z,88.15
2023-01-27T08:57:43.887Z,88.30
2023-01-27T09:01:27.030Z,87.92
2023-01-27T09:05:09.810Z,88.65
2023-01-27T09:09:10.717Z,88.19
2023-01-27T09:12:54.078Z,87.50
2023-01-27T09:16:36.816Z,87.64
2023-01-27T09:20:19.772Z,88.78
2023-01-27T09:24:04.003Z,88.54
2023-01-27T09:27:46.693Z,88.14
2023-01-27T09:31:29.491Z,86.51
2023-01-27T09:35:12.843Z,86.49
2023-01-27T09:38:58.945Z,86.74
2023-01-27T09:43:04.519Z,86.03
2023-01-27T09:47:23.694Z,85.20
2023-01-27T09:51:10.658Z,85.42
2023-01-27T09:54:59.748Z,84.63
2023-01-27T09:58:57.050Z,84.40
2023-01-27T10:02:59.361Z,84.16
2023-01-27T10:06:50.079Z,83.97
2023-01-27T10:10:40.947Z,84.36
2023-01-27T10:14:33.528Z,83.19
2023-01-27T10:18:25.612Z,83.53
2023-01-27T10:22:16.241Z,84.34
2023-01-27T10:26:08.506Z,83.79
2023-01-27T10:29:58.215Z,82.46
2023-01-27T10:33:48.941Z,82.66
2023-01-27T10:37:37.641Z,82.35
2023-01-27T10:41:26.674Z,83.49
2023-01-27T10:45:23.670Z,84.44
2023-01-27T10:49:09.002Z,83.88
2023-01-27T10:52:57.501Z,82.39
2023-01-27T10:56:42.896Z,82.77
2023-01-27T11:01:18.899Z,82.96
2023-01-27T11:04:39.123Z,82.97
2023-01-27T11:08:23.418Z,82.37
2023-01-27T11:12:10.194Z,82.24
2023-01-27T11:15:54.799Z,80.85
2023-01-27T11:19:44.201Z,79.29
2023-01-27T11:23:29.316Z,79.53
2023-01-27T11:27:18.932Z,79.05
2023-01-27T11:31:08.952Z,76.82
2023-01-27T11:35:01.328Z,76.22
2023-01-27T11:38:44.089Z,82.47
2023-01-27T11:42:30.953Z,77.13
2023-01-27T11:46:19.057Z,75.17
2023-01-27T11:50:02.121Z,75.53
2023-01-27T11:53:45.488Z,74.94
2023-01-27T11:57:29.410Z,74.61
2023-01-27T12:01:17.955Z,74.94
2023-01-27T12:05:04.995Z,74.81
2023-01-27T12:08:50.087Z,75.01
2023-01-27T12:12:33.104Z,75.07
2023-01-27T12:16:17.489Z,75.85
2023-01-27T12:20:02.690Z,74.70
2023-01-27T12:23:50.757Z,72.27
2023-01-27T12:27:40.288Z,72.44
2023-01-27T12:31:30.949Z,72.84
2023-01-27T12:35:21.273Z,72.95
2023-01-27T12:39:04.138Z,73.09
2023-01-27T12:42:50.968Z,72.84
2023-01-27T12:46:35.708Z,71.16
2023-01-27T12:50:22.651Z,72.33
2023-01-27T12:54:17.026Z,73.68
2023-01-27T12:57:59.984Z,71.99
2023-01-27T13:01:47.095Z,71.84
2023-01-27T13:05:29.888Z,72.11
2023-01-27T13:09:25.377Z,73.29
2023-01-27T13:13:23.131Z,72.23
2023-01-27T13:17:28.304Z,72.20
2023-01-27T13:21:14.779Z,72.11
2023-01-27T13:25:00.659Z,70.42
2023-01-27T13:28:52.840Z,70.25
2023-01-27T13:32:37.960Z,71.11
2023-01-27T13:36:28.067Z,71.58
2023-01-27T13:40:17.984Z,71.83
2023-01-27T13:44:07.074Z,70.95
2023-01-27T13:47:54.578Z,71.11
2023-01-27T13:51:39.524Z,71.25
2023-01-27T13:55:27.981Z,71.22
2023-01-27T13:59:25.682Z,70.53
2023-01-27T14:03:40.947Z,71.30
2023-01-27T14:07:29.193Z,72.12
2023-01-27T14:11:19.080Z,72.40
2023-01-27T14:15:09.435Z,72.52
2023-01-27T14:18:58.422Z,73.31
2023-01-27T14:22:48.112Z,73.61
2023-01-27T14:26:48.282Z,71.06
2023-01-27T14:30:32.866Z,69.25
2023-01-27T14:34:31.467Z,69.02
2023-01-27T14:38:18.969Z,69.59
2023-01-27T14:42:08.026Z,69.90
2023-01-27T14:45:54.892Z,70.08
2023-01-27T14:49:55.396Z,70.23
2023-01-27T14:53:48.464Z,70.70
2023-01-27T14:57:38.550Z,71.29
2023-01-27T15:01:28.575Z,71.65
2023-01-27T15:05:17.563Z,72.13
2023-01-27T15:09:05.875Z,72.72
2023-01-27T15:12:59.295Z,73.21
2023-01-27T15:16:51.821Z,73.04
2023-01-27T15:20:48.503Z,72.83
2023-01-27T15:24:53.278Z,72.26
2023-01-27T15:28:41.954Z,72.13
2023-01-27T15:32:29.879Z,72.04
2023-01-27T15:36:31.946Z,73.87
2023-01-27T15:40:17.015Z,73.06
2023-01-27T15:44:16.592Z,71.20
2023-01-27T15:48:01.568Z,71.15
2023-01-27T15:51:45.665Z,71.91
2023-01-27T15:55:30.122Z,71.78
2023-01-27T15:59:15.896Z,72.58
2023-01-27T16:03:02.391Z,73.19
2023-01-27T16:06:52.159Z,73.27
2023-01-27T16:10:35.942Z,72.88
2023-01-27T16:14:48.543Z,71.11
2023-01-27T16:18:42.784Z,71.73
2023-01-27T16:22:28.716Z,72.34
2023-01-27T16:26:25.021Z,72.18
2023-01-27T16:30:14.344Z,73.45
2023-01-27T16:33:59.116Z,76.11
2023-01-27T16:38:00.110Z,79.94
2023-01-27T16:41:52.485Z,80.01
2023-01-27T16:45:43.779Z,76.91
2023-01-27T16:49:28.909Z,75.97
2023-01-27T16:53:18.912Z,75.54
2023-01-27T16:57:04.900Z,75.75
2023-01-27T17:00:50.834Z,77.41
2023-01-27T17:04:33.687Z,78.35
2023-01-27T17:08:22.883Z,79.67
2023-01-27T17:12:06.524Z,79.91
2023-01-27T17:15:49.252Z,80.33
2023-01-27T17:19:34.040Z,80.45
2023-01-27T17:23:29.136Z,78.79
2023-01-27T17:27:22.687Z,82.93
2023-01-27T17:31:07.999Z,81.80
2023-01-27T17:34:51.867Z,82.12
2023-01-27T17:38:44.401Z,82.15
2023-01-27T17:42:29.778Z,85.74
2023-01-27T17:46:16.636Z,85.91
2023-01-27T17:49:59.404Z,83.57
2023-01-27T17:53:43.830Z,80.73
2023-01-27T17:57:32.419Z,80.12
2023-01-27T18:01:16.000Z,80.64
2023-01-27T18:05:00.976Z,81.09
2023-01-27T18:08:52.466Z,80.41
2023-01-27T18:12:36.737Z,81.20
2023-01-27T18:16:20.642Z,82.29
2023-01-27T18:20:04.925Z,81.55
2023-01-27T18:23:51.291Z,81.46
2023-01-27T18:27:35.944Z,81.82
2023-01-27T18:31:22.024Z,81.72
2023-01-27T18:35:22.715Z,81.16
2023-01-27T18:39:28.877Z,81.40
2023-01-27T18:43:11.857Z,81.91
2023-01-27T18:46:55.208Z,81.94
2023-01-27T18:50:41.833Z,81.88
2023-01-27T18:54:26.386Z,81.86
2023-01-27T18:58:12.625Z,81.99
2023-01-27T19:01:55.362Z,82.14
2023-01-27T19:05:38.102Z,81.33
2023-01-27T19:09:20.789Z,81.99
2023-01-27T19:13:05.730Z,82.11
2023-01-27T19:16:48.502Z,80.44
2023-01-27T19:20:31.882Z,79.24
2023-01-27T19:24:15.264Z,79.60
2023-01-27T19:28:02.474Z,80.44
2023-01-27T19:31:46.616Z,81.71
2023-01-27T19:35:31.733Z,81.60
2023-01-27T19:39:16.961Z,80.89
2023-01-27T19:42:59.843Z,81.56
2023-01-27T19:46:43.608Z,81.47
2023-01-27T19:50:29.452Z,81.17
2023-01-27T19:54:12.151Z,81.92
2023-01-27T19:57:54.913Z,81.29
2023-01-27T20:01:37.562Z,81.39
2023-01-27T20:05:20.826Z,81.03
2023-01-27T20:09:05.582Z,80.22
2023-01-27T20:12:54.529Z,79.38
2023-01-27T20:16:37.257Z,77.87
2023-01-27T20:20:20.534Z,77.39
2023-01-27T20:24:05.144Z,77.37
2023-01-27T20:27:49.428Z,77.42
2023-01-27T20:31:32.132Z,76.97
2023-01-27T20:35:16.250Z,77.76
2023-01-27T20:38:59.016Z,80.09
2023-01-27T20:42:43.127Z,81.71
2023-01-27T20:46:25.860Z,82.30
2023-01-27T20:50:09.922Z,80.81
2023-01-27T20:53:52.579Z,77.97
2023-01-27T20:57:35.707Z,77.09
2023-01-27T21:01:21.234Z,77.21
2023-01-27T21:05:03.995Z,76.22
2023-01-27T21:08:47.616Z,76.19
2023-01-27T21:12:30.387Z,76.46
2023-01-27T21:16:13.279Z,76.83
2023-01-27T21:19:57.331Z,77.02
2023-01-27T21:23:40.185Z,77.51
2023-01-27T21:27:22.881Z,78.30
2023-01-27T21:31:06.919Z,79.36
2023-01-27T21:34:49.707Z,78.96
2023-01-27T21:38:33.868Z,79.50
2023-01-27T21:42:33.799Z,79.82
2023-01-27T21:46:16.445Z,80.19
2023-01-27T21:50:02.439Z,80.75
2023-01-27T21:53:46.627Z,80.49
2023-01-27T21:57:29.556Z,80.94
2023-01-27T22:01:12.416Z,79.94
2023-01-27T22:04:55.264Z,79.68
2023-01-27T22:08:38.084Z,80.16
2023-01-27T22:12:23.328Z,80.80
2023-01-27T22:16:06.971Z,80.50
2023-01-27T22:19:49.725Z,80.43
2023-01-27T22:23:32.524Z,80.35
2023-01-27T22:27:15.214Z,79.05
2023-01-27T22:31:02.623Z,79.30
2023-01-27T22:34:45.359Z,78.91
2023-01-27T22:38:28.167Z,78.97
2023-01-27T22:42:11.082Z,79.09
2023-01-27T22:45:53.903Z,79.14
2023-01-27T22:49:38.035Z,79.29
2023-01-27T22:53:20.704Z,79.57
2023-01-27T22:57:03.357Z,78.86
2023-01-27T23:00:46.055Z,79.20
2023-01-27T23:04:28.674Z,79.66
2023-01-27T23:08:12.777Z,79.05
2023-01-27T23:11:56.451Z,79.70
2023-01-27T23:15:39.127Z,79.96
2023-01-27T23:19:22.187Z,80.65
2023-01-27T23:23:04.960Z,81.22
2023-01-27T23:26:49.137Z,79.78
2023-01-27T23:30:31.841Z,78.27
2023-01-27T23:34:14.651Z,78.00
2023-01-27T23:37:57.284Z,77.50
2023-01-27T23:41:39.979Z,77.48
2023-01-27T23:45:23.972Z,77.69
2023-01-27T23:49:07.783Z,77.70
2023-01-27T23:52:50.518Z,77.42
2023-01-27T23:56:33.215Z,77.56
